Terminal Aerodrome Forecast
Issued by NWS Blacksburg, VA

Home | Current Version | Previous Version | Text Only | Print | Product List | Glossary On
Versions: 1 2 3 4 5 6 7 8 9 10 11 12 13 14 15 16
000
FTUS41 KRNK 212320
TAFROA
TAF
KROA 212320Z 2200/2224 10011KT P6SM VCTS SCT060CB
      TEMPO 2200/2201 4SM -TSRA
     FM220100 VRB06KT P6SM VCSH SCT060
     FM220200 VRB03KT P6SM FEW250
     FM221700 24006KT P6SM FEW060=

USA.gov is the U.S. government's official web portal to all federal, state and local government web resources and services.